Terminal Aerodrome Forecast
Issued by NWS

Home | Current Version | Previous Version | Text Only | Print | Product List | Glossary On
Versions: 1 2 3 4 5 6 7 8 9 10 11 12 13 14 15 16
000
FTPA31 PHFO 301136
TAFSTU
TAF
NSTU 301136Z 3012/0112 13015KT 4SM RA BR SCT015 OVC035
      TEMPO 3012/3016 10015G25KT 1/2SM +SHRA FG BKN008 OVC015
     FM301600 12015KT P6SM VCSH SCT020 BKN040 BKN100=

USA.gov is the U.S. government's official web portal to all federal, state and local government web resources and services.